createdAt,value
2022-07-27T00:04:06.887Z,1.50
2022-07-27T00:09:09.089Z,1.50
2022-07-27T00:14:10.912Z,1.20
2022-07-27T00:19:12.902Z,1.10
2022-07-27T00:24:14.788Z,1.20
2022-07-27T00:29:16.438Z,1.50
2022-07-27T00:34:18.058Z,1.50
2022-07-27T00:39:19.683Z,1.40
2022-07-27T00:44:27.969Z,1.08
2022-07-27T00:49:29.813Z,1.20
2022-07-27T00:54:31.522Z,1.30
2022-07-27T00:59:33.127Z,1.10
2022-07-27T01:04:34.910Z,1.20
2022-07-27T01:09:56.106Z,1.80
2022-07-27T01:14:58.866Z,1.38
2022-07-27T01:20:00.587Z,1.20
2022-07-27T01:25:02.248Z,1.33
2022-07-27T01:30:24.921Z,1.10
2022-07-27T01:35:26.545Z,1.17
2022-07-27T01:40:28.192Z,1.50
2022-07-27T01:45:29.869Z,1.40
2022-07-27T01:50:31.652Z,1.45
2022-07-27T01:55:38.371Z,1.50
2022-07-27T02:00:41.091Z,1.40
2022-07-27T02:05:42.926Z,1.70
2022-07-27T02:11:03.074Z,1.30
2022-07-27T02:16:05.049Z,1.52
2022-07-27T02:21:18.088Z,1.35
2022-07-27T02:26:19.776Z,1.35
2022-07-27T02:31:21.402Z,1.77
2022-07-27T02:36:23.087Z,1.50
2022-07-27T02:41:24.953Z,1.95
2022-07-27T02:46:26.634Z,1.73
2022-07-27T02:51:28.331Z,2.15
2022-07-27T02:56:30.082Z,1.48
2022-07-27T03:01:31.719Z,1.80
2022-07-27T03:06:33.348Z,1.73
2022-07-27T03:11:35.280Z,1.60
2022-07-27T03:16:36.932Z,1.45
2022-07-27T03:21:38.589Z,1.70
2022-07-27T03:26:40.222Z,1.83
2022-07-27T03:31:41.814Z,1.70
2022-07-27T03:36:43.786Z,1.50
2022-07-27T03:41:45.429Z,1.50
2022-07-27T03:46:47.065Z,1.33
2022-07-27T03:51:48.685Z,1.70
2022-07-27T03:56:50.375Z,1.70
2022-07-27T04:01:52.052Z,1.73
2022-07-27T04:06:53.615Z,1.58
2022-07-27T04:11:57.170Z,2.22
2022-07-27T04:17:01.306Z,1.70
2022-07-27T04:22:03.394Z,1.73
2022-07-27T04:27:05.017Z,1.58
2022-07-27T04:32:06.733Z,1.55
2022-07-27T04:37:08.392Z,1.45
2022-07-27T04:42:09.986Z,1.90
2022-07-27T04:47:11.585Z,1.70
2022-07-27T04:52:16.745Z,1.63
2022-07-27T04:57:18.701Z,1.65
2022-07-27T05:02:20.560Z,2.05
2022-07-27T05:07:22.138Z,1.67
2022-07-27T05:12:23.769Z,1.73
2022-07-27T05:17:25.386Z,1.70
2022-07-27T05:22:26.963Z,1.73
2022-07-27T05:27:28.611Z,1.88
2022-07-27T05:32:30.271Z,1.60
2022-07-27T05:37:31.865Z,1.55
2022-07-27T05:42:34.526Z,1.50
2022-07-27T05:47:36.585Z,1.45
2022-07-27T05:52:38.329Z,1.50
2022-07-27T05:57:41.348Z,1.50
2022-07-27T06:02:43.493Z,1.38
2022-07-27T06:08:00.637Z,1.38
2022-07-27T06:13:04.687Z,1.55
2022-07-27T06:18:09.046Z,1.05
2022-07-27T06:23:11.170Z,1.80
2022-07-27T06:28:12.781Z,1.40
2022-07-27T06:33:15.200Z,3.72
2022-07-27T06:38:19.229Z,1.60
2022-07-27T06:43:31.874Z,2.20
2022-07-27T06:48:34.210Z,1.50
2022-07-27T06:53:37.226Z,1.60
2022-07-27T06:58:40.251Z,1.88
2022-07-27T07:03:42.001Z,1.60
2022-07-27T07:08:43.654Z,1.25
2022-07-27T07:13:45.309Z,1.60
2022-07-27T07:18:52.071Z,1.38
2022-07-27T07:23:54.006Z,1.20
2022-07-27T07:28:55.583Z,1.50
2022-07-27T07:33:58.514Z,1.30
2022-07-27T07:39:00.894Z,1.42
2022-07-27T07:44:02.525Z,1.30
2022-07-27T07:49:05.460Z,1.40
2022-07-27T07:54:07.103Z,1.42
2022-07-27T07:59:09.007Z,1.60
2022-07-27T08:04:10.867Z,2.97
2022-07-27T08:09:17.695Z,1.20
2022-07-27T08:14:19.290Z,1.20
2022-07-27T08:19:20.866Z,2.85
2022-07-27T08:24:22.529Z,1.40
2022-07-27T08:29:24.165Z,1.63
2022-07-27T08:34:38.409Z,1.90
2022-07-27T08:45:02.053Z,1.50
2022-07-27T08:50:03.982Z,1.23
2022-07-27T08:55:05.869Z,1.63
2022-07-27T09:00:08.745Z,1.20
2022-07-27T09:05:10.491Z,1.10
2022-07-27T09:10:12.449Z,1.00
2022-07-27T09:15:15.170Z,1.15
2022-07-27T09:20:19.745Z,1.40
2022-07-27T09:25:38.685Z,1.20
2022-07-27T09:30:45.417Z,1.23
2022-07-27T09:35:58.880Z,1.25
2022-07-27T09:41:01.963Z,1.10
2022-07-27T09:46:07.974Z,1.50
2022-07-27T09:51:48.934Z,1.30
2022-07-27T09:56:33.359Z,0.80
2022-07-27T10:01:42.203Z,1.27
2022-07-27T10:07:02.131Z,1.50
2022-07-27T10:12:05.058Z,1.05
2022-07-27T10:17:07.673Z,1.10
2022-07-27T10:22:09.276Z,1.33
2022-07-27T10:27:31.025Z,1.30
2022-07-27T10:32:33.940Z,1.02
2022-07-27T10:37:35.848Z,1.23
2022-07-27T10:42:37.505Z,1.35
2022-07-27T10:47:51.236Z,1.08
2022-07-27T10:53:02.183Z,1.00
2022-07-27T10:58:09.725Z,1.45
2022-07-27T11:03:21.309Z,1.40
2022-07-27T11:08:38.213Z,1.17
2022-07-27T11:13:48.586Z,1.27
2022-07-27T11:19:01.394Z,1.60
2022-07-27T11:24:14.550Z,2.25
2022-07-27T11:29:18.244Z,1.90
2022-07-27T11:34:35.953Z,1.25
2022-07-27T11:45:01.092Z,1.15
2022-07-27T11:50:07.523Z,1.60
2022-07-27T11:55:09.328Z,1.48
2022-07-27T12:00:15.416Z,1.42
2022-07-27T12:05:17.453Z,1.30
2022-07-27T12:10:19.136Z,1.20
2022-07-27T12:15:45.941Z,1.10
2022-07-27T12:20:42.394Z,1.30
2022-07-27T12:25:45.062Z,1.10
2022-07-27T12:30:48.790Z,1.10
2022-07-27T12:35:50.723Z,1.15
2022-07-27T12:41:00.609Z,1.30
2022-07-27T12:46:13.649Z,1.35
2022-07-27T12:51:23.669Z,1.20
2022-07-27T12:56:26.841Z,1.00
2022-07-27T13:01:29.331Z,1.67
2022-07-27T13:06:31.257Z,1.40
2022-07-27T13:11:32.878Z,1.15
2022-07-27T13:16:34.522Z,1.30
2022-07-27T13:21:36.444Z,1.30
2022-07-27T13:26:39.326Z,1.27
2022-07-27T13:31:48.999Z,1.42
2022-07-27T13:36:53.167Z,1.10
2022-07-27T13:41:55.228Z,1.30
2022-07-27T13:46:56.867Z,1.45
2022-07-27T13:51:58.485Z,1.15
2022-07-27T13:57:00.114Z,1.00
2022-07-27T14:02:01.890Z,1.08
2022-07-27T14:07:04.499Z,0.80
2022-07-27T14:12:06.316Z,1.13
2022-07-27T14:17:08.461Z,1.00
2022-07-27T14:22:10.745Z,1.00
2022-07-27T14:27:12.362Z,1.20
2022-07-27T14:32:13.978Z,1.30
2022-07-27T14:37:15.742Z,1.20
2022-07-27T14:42:19.612Z,1.10
2022-07-27T14:47:21.359Z,1.13
2022-07-27T14:52:23.181Z,1.20
2022-07-27T14:57:25.047Z,1.20
2022-07-27T15:02:26.940Z,0.90
2022-07-27T15:07:29.028Z,1.30
2022-07-27T15:12:33.754Z,1.20
2022-07-27T15:17:39.308Z,0.93
2022-07-27T15:22:40.964Z,0.93
2022-07-27T15:27:42.806Z,0.98
2022-07-27T15:32:44.411Z,1.23
2022-07-27T15:37:53.909Z,1.40
2022-07-27T15:42:56.612Z,1.23
2022-07-27T15:47:58.246Z,1.15
2022-07-27T15:52:59.906Z,1.00
2022-07-27T15:58:01.577Z,1.20
2022-07-27T16:03:04.503Z,0.90
2022-07-27T16:08:09.106Z,1.20
2022-07-27T16:13:13.090Z,1.10
2022-07-27T16:18:14.727Z,0.90
2022-07-27T16:23:18.562Z,2.00
2022-07-27T16:28:24.877Z,1.50
2022-07-27T16:33:26.661Z,1.10
2022-07-27T16:38:28.627Z,0.95
2022-07-27T16:43:38.615Z,1.00
2022-07-27T16:48:43.244Z,1.20
2022-07-27T16:53:46.403Z,1.00
2022-07-27T16:58:48.048Z,1.02
2022-07-27T17:03:49.779Z,1.40
2022-07-27T17:08:51.905Z,1.17
2022-07-27T17:13:59.361Z,1.15
2022-07-27T17:19:01.420Z,1.08
2022-07-27T17:24:03.108Z,1.40
2022-07-27T17:29:05.168Z,1.20
2022-07-27T17:34:06.773Z,1.30
2022-07-27T17:39:09.683Z,1.40
2022-07-27T17:44:13.464Z,1.05
2022-07-27T17:49:15.414Z,0.90
2022-07-27T17:54:20.416Z,1.25
2022-07-27T17:59:38.423Z,1.30
2022-07-27T18:04:40.403Z,1.10
2022-07-27T18:09:42.574Z,1.15
2022-07-27T18:15:04.146Z,1.00
2022-07-27T18:20:09.919Z,1.10
2022-07-27T18:25:11.547Z,1.20
2022-07-27T18:30:13.262Z,2.58
2022-07-27T18:35:14.887Z,1.08
2022-07-27T18:40:16.584Z,1.35
2022-07-27T18:45:18.424Z,1.10
2022-07-27T18:50:20.064Z,1.17
2022-07-27T18:55:22.958Z,1.30
2022-07-27T19:00:26.573Z,1.67
2022-07-27T19:05:40.580Z,1.80
2022-07-27T19:10:44.203Z,2.65
2022-07-27T19:15:45.943Z,3.03
2022-07-27T19:20:47.515Z,2.50
2022-07-27T19:25:49.140Z,2.97
2022-07-27T19:30:51.200Z,3.58
2022-07-27T19:35:55.606Z,3.15
2022-07-27T19:40:57.304Z,3.40
2022-07-27T19:45:58.996Z,3.60
2022-07-27T19:51:04.867Z,3.72
2022-07-27T19:56:08.616Z,3.83
2022-07-27T20:01:10.534Z,3.97
2022-07-27T20:06:14.178Z,5.60
2022-07-27T20:11:15.833Z,3.85
2022-07-27T20:16:18.169Z,4.07
2022-07-27T20:21:22.600Z,4.28
2022-07-27T20:26:25.323Z,4.20
2022-07-27T20:31:28.075Z,4.80
2022-07-27T20:36:29.727Z,4.95
2022-07-27T20:41:31.380Z,5.10
2022-07-27T20:46:33.108Z,5.00
2022-07-27T20:51:34.725Z,4.78
2022-07-27T20:56:37.010Z,4.30
2022-07-27T21:01:38.681Z,3.90
2022-07-27T21:06:40.414Z,4.57
2022-07-27T21:11:42.026Z,3.80
2022-07-27T21:16:43.709Z,3.55
2022-07-27T21:21:45.470Z,4.18
2022-07-27T21:26:49.080Z,4.30
2022-07-27T21:31:50.708Z,5.93
2022-07-27T21:36:52.345Z,4.60
2022-07-27T21:41:57.267Z,4.35
2022-07-27T21:47:04.195Z,5.40
2022-07-27T21:52:06.034Z,5.22
2022-07-27T21:57:07.755Z,5.07
2022-07-27T22:02:09.393Z,4.43
2022-07-27T22:07:16.701Z,3.97
2022-07-27T22:12:21.253Z,3.72
2022-07-27T22:17:22.839Z,3.80
2022-07-27T22:22:24.453Z,3.72
2022-07-27T22:27:26.114Z,3.30
2022-07-27T22:32:27.801Z,3.60
2022-07-27T22:37:29.421Z,3.72
2022-07-27T22:42:31.009Z,3.70
2022-07-27T22:47:32.674Z,3.63
2022-07-27T22:52:34.622Z,3.20
2022-07-27T22:57:36.272Z,3.50
2022-07-27T23:02:37.947Z,3.20
2022-07-27T23:07:39.577Z,2.90
2022-07-27T23:12:41.242Z,2.80
2022-07-27T23:17:42.887Z,3.17
2022-07-27T23:22:44.712Z,2.80
2022-07-27T23:27:52.231Z,3.10
2022-07-27T23:32:56.117Z,2.70
2022-07-27T23:37:57.758Z,2.47
2022-07-27T23:42:59.351Z,2.40
2022-07-27T23:48:01.581Z,2.25
2022-07-27T23:53:03.166Z,2.55
2022-07-27T23:58:04.819Z,2.08
